createdAt,value
2018-06-30T00:01:19.237Z,100148.87
2018-06-30T00:04:22.206Z,100135.38
2018-06-30T00:07:25.174Z,100139.15
2018-06-30T00:10:29.668Z,100137.77
2018-06-30T00:13:35.059Z,100139.09
2018-06-30T00:16:38.385Z,100134.33
2018-06-30T00:19:41.370Z,100133.22
2018-06-30T00:22:44.452Z,100137.23
2018-06-30T00:25:47.401Z,100016.11
2018-06-30T00:28:51.397Z,100127.98
2018-06-30T00:31:54.474Z,100125.95
2018-06-30T00:34:57.484Z,100122.54
2018-06-30T00:38:01.375Z,100126.09
2018-06-30T00:41:04.637Z,100130.62
2018-06-30T00:44:07.743Z,100128.31
2018-06-30T00:47:12.928Z,100126.86
2018-06-30T00:50:15.964Z,100123.30
2018-06-30T00:53:18.908Z,100124.27
2018-06-30T00:56:21.860Z,100117.95
2018-06-30T00:59:24.863Z,100119.84
2018-06-30T01:02:27.782Z,100116.13
2018-06-30T01:05:30.777Z,100112.80
2018-06-30T01:08:34.079Z,100120.88
2018-06-30T01:11:37.218Z,100120.44
2018-06-30T01:14:40.309Z,100128.25
2018-06-30T01:17:43.375Z,100125.02
2018-06-30T01:20:46.358Z,100120.22
2018-06-30T01:23:49.301Z,100126.13
2018-06-30T01:26:52.249Z,100127.22
2018-06-30T01:29:55.211Z,100124.31
2018-06-30T01:32:58.104Z,100115.13
2018-06-30T01:36:01.065Z,100116.63
2018-06-30T01:39:07.247Z,100114.45
2018-06-30T01:42:10.513Z,100117.13
2018-06-30T01:45:13.781Z,100110.59
2018-06-30T01:48:16.848Z,100114.86
2018-06-30T01:51:19.741Z,100110.95
2018-06-30T01:54:22.672Z,100107.91
2018-06-30T01:57:25.599Z,100110.39
2018-06-30T02:00:28.554Z,100114.53
2018-06-30T02:03:31.472Z,100110.52
2018-06-30T02:06:34.838Z,100108.37
2018-06-30T02:09:37.906Z,100108.04
2018-06-30T02:12:41.022Z,100103.45
2018-06-30T02:15:44.266Z,100103.08
2018-06-30T02:18:47.183Z,100101.64
2018-06-30T02:21:50.143Z,100093.08
2018-06-30T02:24:53.098Z,100100.06
2018-06-30T02:27:56.060Z,100091.02
2018-06-30T02:30:59.009Z,100088.55
2018-06-30T02:34:01.989Z,100092.21
2018-06-30T02:37:05.523Z,100089.62
2018-06-30T02:40:08.862Z,100088.45
2018-06-30T02:43:11.957Z,100090.19
2018-06-30T02:46:16.248Z,100087.77
2018-06-30T02:49:19.163Z,100090.30
2018-06-30T02:52:22.140Z,100095.80
2018-06-30T02:55:25.261Z,100097.74
2018-06-30T03:12:11.477Z,100103.69
2018-06-30T03:15:14.754Z,100106.97
2018-06-30T03:18:17.698Z,100109.84
2018-06-30T03:21:20.677Z,100104.28
2018-06-30T03:24:23.616Z,100102.55
2018-06-30T03:27:26.589Z,100103.42
2018-06-30T03:30:29.524Z,100103.33
2018-06-30T03:33:32.630Z,100101.86
2018-06-30T03:36:35.755Z,100093.50
2018-06-30T03:39:38.874Z,100098.52
2018-06-30T03:42:41.907Z,100094.66
2018-06-30T03:45:44.930Z,100096.80
2018-06-30T03:48:47.905Z,100105.81
2018-06-30T03:51:50.860Z,100102.16
2018-06-30T03:54:53.804Z,100101.11
2018-06-30T03:57:56.780Z,100095.72
2018-06-30T04:00:59.856Z,100095.72
2018-06-30T04:04:02.991Z,100100.17
2018-06-30T04:07:06.161Z,100101.72
2018-06-30T04:10:09.274Z,100099.86
2018-06-30T04:13:12.431Z,100095.52
2018-06-30T04:16:15.576Z,100099.19
2018-06-30T04:19:18.531Z,100106.78
2018-06-30T04:22:21.477Z,100105.92
2018-06-30T04:25:25.191Z,100108.70
2018-06-30T04:28:28.177Z,100107.14
2018-06-30T04:31:31.188Z,100105.89
2018-06-30T04:34:34.917Z,100100.73
2018-06-30T04:37:38.116Z,100102.64
2018-06-30T04:40:41.165Z,100102.81
2018-06-30T04:43:44.251Z,100104.25
2018-06-30T04:46:47.225Z,100101.48
2018-06-30T04:49:50.161Z,100104.94
2018-06-30T04:52:53.140Z,100105.89
2018-06-30T04:55:56.144Z,100106.28
2018-06-30T04:58:59.170Z,100108.41
2018-06-30T05:02:02.251Z,100108.20
2018-06-30T05:05:05.594Z,100117.11
2018-06-30T05:08:08.676Z,100120.31
2018-06-30T05:11:11.736Z,100117.92
2018-06-30T05:14:14.821Z,100124.80
2018-06-30T05:17:17.786Z,100125.19
2018-06-30T05:20:20.749Z,100121.71
2018-06-30T05:23:23.670Z,100123.69
2018-06-30T05:26:27.406Z,100118.63
2018-06-30T05:29:30.364Z,100118.72
2018-06-30T05:32:33.554Z,100122.73
2018-06-30T05:35:39.327Z,100119.31
2018-06-30T05:38:42.425Z,100122.17
2018-06-30T05:41:45.706Z,100122.70
2018-06-30T05:44:56.501Z,100122.11
2018-06-30T05:48:11.664Z,100118.16
2018-06-30T05:51:16.116Z,100115.37
2018-06-30T05:54:20.171Z,100117.55
2018-06-30T05:57:23.406Z,100118.95
2018-06-30T06:00:26.466Z,100118.42
2018-06-30T06:03:30.114Z,100115.00
2018-06-30T06:06:34.392Z,100118.05
2018-06-30T06:09:37.488Z,100108.77
2018-06-30T06:12:41.707Z,100111.91
2018-06-30T06:15:47.017Z,100114.78
2018-06-30T06:18:50.239Z,100117.11
2018-06-30T06:21:53.572Z,100111.04
2018-06-30T06:24:57.177Z,100112.66
2018-06-30T06:28:00.654Z,100111.82
2018-06-30T06:31:04.543Z,100117.41
2018-06-30T06:34:07.677Z,100111.75
2018-06-30T06:37:10.881Z,100109.38
2018-06-30T06:40:14.347Z,100109.81
2018-06-30T06:43:17.529Z,100112.08
2018-06-30T06:46:20.478Z,100109.71
2018-06-30T06:49:23.415Z,100117.36
2018-06-30T06:52:31.193Z,100112.27
2018-06-30T06:55:34.337Z,100113.33
2018-06-30T06:58:37.540Z,100119.77
2018-06-30T07:01:43.242Z,100119.34
2018-06-30T07:04:50.323Z,100120.47
2018-06-30T07:07:53.760Z,100114.19
2018-06-30T07:10:56.746Z,100119.83
2018-06-30T07:14:00.314Z,100106.95
2018-06-30T07:17:04.081Z,100115.37
2018-06-30T07:20:07.385Z,100116.23
2018-06-30T07:23:10.469Z,100117.02
2018-06-30T07:26:14.412Z,100121.73
2018-06-30T07:29:17.541Z,100120.12
2018-06-30T07:32:20.488Z,100119.08
2018-06-30T07:35:23.457Z,100122.61
2018-06-30T07:38:26.476Z,100127.34
2018-06-30T07:41:29.435Z,100124.83
2018-06-30T07:44:32.594Z,100123.61
2018-06-30T07:47:35.682Z,100119.58
2018-06-30T07:50:39.496Z,100116.73
2018-06-30T07:53:42.441Z,100114.03
2018-06-30T07:56:45.375Z,100113.58
2018-06-30T07:59:48.326Z,100121.09
2018-06-30T08:02:51.414Z,100119.08
2018-06-30T08:05:54.357Z,100103.06
2018-06-30T08:08:57.325Z,100121.28
2018-06-30T08:12:01.192Z,100117.74
2018-06-30T08:15:05.873Z,100117.14
2018-06-30T08:18:08.977Z,100121.08
2018-06-30T08:21:12.180Z,100121.17
2018-06-30T08:24:15.278Z,100118.01
2018-06-30T08:27:18.236Z,100123.43
2018-06-30T08:30:21.317Z,100125.55
2018-06-30T08:33:24.965Z,100123.43
2018-06-30T08:36:27.982Z,100129.31
2018-06-30T08:39:31.053Z,100128.30
2018-06-30T08:42:34.705Z,100119.77
2018-06-30T08:45:37.809Z,100123.13
2018-06-30T08:48:41.887Z,100123.20
2018-06-30T08:51:45.101Z,100122.11
2018-06-30T08:54:48.076Z,100119.50
2018-06-30T08:57:52.466Z,100125.61
2018-06-30T09:00:55.993Z,100118.53
2018-06-30T09:03:59.071Z,100122.97
2018-06-30T09:07:02.105Z,100116.50
2018-06-30T09:10:05.789Z,100114.58
2018-06-30T09:13:08.901Z,100113.88
2018-06-30T09:16:12.052Z,100120.06
2018-06-30T09:19:15.756Z,100119.80
2018-06-30T09:22:18.897Z,100119.33
2018-06-30T09:25:21.986Z,100116.78
2018-06-30T09:28:25.220Z,100118.36
2018-06-30T09:31:29.105Z,100117.63
2018-06-30T09:34:32.536Z,100131.22
2018-06-30T09:37:36.037Z,100123.55
2018-06-30T09:40:39.728Z,100120.91
2018-06-30T09:43:43.943Z,100122.84
2018-06-30T09:46:47.123Z,100129.86
2018-06-30T09:49:50.161Z,100120.42
2018-06-30T09:52:53.306Z,100116.76
2018-06-30T09:55:56.248Z,100112.12
2018-06-30T09:58:59.267Z,100108.17
2018-06-30T10:02:02.283Z,100111.74
2018-06-30T10:05:05.298Z,100111.24
2018-06-30T10:08:08.256Z,100117.34
2018-06-30T10:11:11.306Z,100102.85
2018-06-30T10:14:14.551Z,100117.75
2018-06-30T10:17:17.593Z,100107.36
2018-06-30T10:20:20.549Z,100104.09
2018-06-30T10:23:24.168Z,100102.50
2018-06-30T10:26:27.726Z,100100.12
2018-06-30T10:29:30.653Z,100109.06
2018-06-30T10:32:33.657Z,100115.03
2018-06-30T10:35:36.842Z,100111.69
2018-06-30T10:38:39.792Z,100109.37
2018-06-30T10:41:42.763Z,100034.13
2018-06-30T10:44:45.709Z,100096.75
2018-06-30T10:47:48.693Z,100095.98
2018-06-30T10:50:51.682Z,100084.87
2018-06-30T10:53:54.659Z,100086.12
2018-06-30T10:56:57.636Z,100075.83
2018-06-30T11:00:01.124Z,100086.95
2018-06-30T11:03:04.392Z,100082.34
2018-06-30T11:06:07.437Z,100079.89
2018-06-30T11:09:11.504Z,100077.44
2018-06-30T11:12:14.503Z,100072.34
2018-06-30T11:15:17.541Z,100070.62
2018-06-30T11:18:20.540Z,100074.28
2018-06-30T11:21:24.206Z,100071.91
2018-06-30T11:24:27.817Z,100069.39
2018-06-30T11:27:30.852Z,100079.14
2018-06-30T11:30:34.410Z,100074.30
2018-06-30T11:33:37.472Z,100068.92
2018-06-30T11:36:40.504Z,100058.84
2018-06-30T11:39:44.153Z,100066.89
2018-06-30T11:42:47.824Z,100066.63
2018-06-30T11:45:50.912Z,100057.84
2018-06-30T11:48:53.851Z,100055.32
2018-06-30T11:51:57.602Z,100055.02
2018-06-30T11:55:01.565Z,100052.80
2018-06-30T11:58:05.738Z,100050.23
2018-06-30T12:01:09.909Z,100054.14
2018-06-30T12:04:13.802Z,100053.68
2018-06-30T12:07:17.685Z,100043.95
2018-06-30T12:10:21.460Z,100050.63
2018-06-30T12:16:42.265Z,100042.59
2018-06-30T12:19:45.248Z,100043.44
2018-06-30T12:22:48.251Z,100044.17
2018-06-30T12:25:51.291Z,100038.89
2018-06-30T12:28:54.234Z,100036.27
2018-06-30T12:31:57.558Z,100026.34
2018-06-30T12:35:00.489Z,100032.19
2018-06-30T12:38:03.833Z,100039.59
2018-06-30T12:41:06.859Z,100040.22
2018-06-30T12:44:09.838Z,100031.12
2018-06-30T12:47:12.985Z,100038.18
2018-06-30T12:50:16.877Z,100033.20
2018-06-30T12:53:19.876Z,100038.41
2018-06-30T12:56:23.044Z,100037.88
2018-06-30T12:59:26.253Z,100030.81
2018-06-30T13:02:29.315Z,100027.62
2018-06-30T13:05:32.500Z,99970.11
2018-06-30T13:08:35.600Z,100025.73
2018-06-30T13:11:38.675Z,100020.94
2018-06-30T13:14:42.418Z,100013.91
2018-06-30T13:17:45.479Z,100022.66
2018-06-30T13:20:48.350Z,100014.95
2018-06-30T13:23:51.307Z,100013.04
2018-06-30T13:26:54.305Z,100001.44
2018-06-30T13:29:58.437Z,99997.81
2018-06-30T13:33:02.143Z,99998.34
2018-06-30T13:36:06.014Z,99992.61
2018-06-30T13:39:13.469Z,99994.91
2018-06-30T13:42:17.352Z,99931.62
2018-06-30T13:45:23.304Z,99998.12
2018-06-30T13:48:26.433Z,99992.27
2018-06-30T13:51:29.590Z,99995.41
2018-06-30T13:54:33.747Z,99995.94
2018-06-30T13:57:37.462Z,99986.48
2018-06-30T14:00:40.785Z,99996.16
2018-06-30T14:03:44.023Z,99988.16
2018-06-30T14:06:47.255Z,99990.60
2018-06-30T14:09:50.586Z,99988.64
2018-06-30T14:12:54.223Z,99989.25
2018-06-30T14:15:57.586Z,99971.45
2018-06-30T14:19:00.651Z,99973.33
2018-06-30T14:22:03.709Z,99975.00
2018-06-30T14:25:07.619Z,99975.06
2018-06-30T14:28:11.101Z,99973.49
2018-06-30T14:31:14.597Z,99969.57
2018-06-30T14:34:18.006Z,99958.79
2018-06-30T14:37:21.262Z,99957.40
2018-06-30T14:40:24.249Z,99959.73
2018-06-30T14:43:27.372Z,99959.11
2018-06-30T14:46:31.507Z,99965.95
2018-06-30T14:49:35.202Z,99965.45
2018-06-30T14:52:38.136Z,99958.42
2018-06-30T14:55:42.593Z,99960.15
2018-06-30T14:58:45.993Z,99960.14
2018-06-30T15:01:49.588Z,99956.53
2018-06-30T15:04:52.621Z,99953.83
2018-06-30T15:07:56.314Z,99956.22
2018-06-30T15:10:59.460Z,99951.16
2018-06-30T15:14:05.288Z,99949.36
2018-06-30T15:17:08.897Z,99952.44
2018-06-30T15:20:12.083Z,99954.97
2018-06-30T15:23:15.320Z,99955.02
2018-06-30T15:26:18.475Z,99947.14
2018-06-30T15:29:21.916Z,99938.92
2018-06-30T15:32:25.169Z,99959.31
2018-06-30T15:35:28.361Z,99953.02
2018-06-30T15:38:31.529Z,99948.48
2018-06-30T15:41:35.003Z,99950.55
2018-06-30T15:44:38.623Z,99956.48
2018-06-30T15:47:41.688Z,99953.47
2018-06-30T15:50:44.833Z,99949.69
2018-06-30T15:53:48.420Z,99946.08
2018-06-30T15:56:51.757Z,99948.97
2018-06-30T15:59:54.969Z,99946.80
2018-06-30T16:02:58.432Z,99948.89
2018-06-30T16:06:01.797Z,99947.03
2018-06-30T16:09:09.618Z,99944.88
2018-06-30T16:12:13.040Z,99949.67
2018-06-30T16:15:16.325Z,99946.30
2018-06-30T16:18:19.477Z,99945.28
2018-06-30T16:21:25.135Z,99945.92
2018-06-30T16:24:28.737Z,99941.37
2018-06-30T16:27:32.147Z,99938.70
2018-06-30T16:30:35.521Z,99944.59
2018-06-30T16:33:38.846Z,99936.34
2018-06-30T16:36:42.400Z,99942.98
2018-06-30T16:39:45.559Z,99939.50
2018-06-30T16:42:49.185Z,99941.30
2018-06-30T16:45:52.748Z,99943.47
2018-06-30T16:48:56.030Z,99933.64
2018-06-30T16:51:58.986Z,99938.91
2018-06-30T16:55:02.089Z,99937.58
2018-06-30T16:58:05.539Z,99937.44
2018-06-30T17:01:08.957Z,99933.16
2018-06-30T17:04:12.400Z,99934.52
2018-06-30T17:07:15.714Z,99937.58
2018-06-30T17:10:18.721Z,99929.66
2018-06-30T17:13:21.937Z,99932.38
2018-06-30T17:16:25.740Z,99930.97
2018-06-30T17:19:29.148Z,99925.80
2018-06-30T17:22:32.403Z,99926.70
2018-06-30T17:25:35.509Z,99933.19
2018-06-30T17:28:38.564Z,99929.44
2018-06-30T17:31:41.930Z,99936.83
2018-06-30T17:34:45.622Z,99935.72
2018-06-30T17:37:49.446Z,99935.92
2018-06-30T17:40:52.771Z,99940.70
2018-06-30T17:43:56.197Z,99935.63
2018-06-30T17:46:59.625Z,99942.97
2018-06-30T17:50:04.195Z,99942.64
2018-06-30T17:53:07.251Z,99936.55
2018-06-30T17:56:10.588Z,99941.72
2018-06-30T17:59:14.050Z,99941.55
2018-06-30T18:02:17.381Z,99942.94
2018-06-30T18:05:20.437Z,99942.81
2018-06-30T18:08:23.483Z,99940.95
2018-06-30T18:11:26.777Z,99941.95
2018-06-30T18:14:30.236Z,99955.98
2018-06-30T18:17:33.691Z,99951.88
2018-06-30T18:20:37.666Z,99947.13
2018-06-30T18:23:40.734Z,99952.19
2018-06-30T18:26:43.739Z,99951.81
2018-06-30T18:29:47.201Z,99944.74
2018-06-30T18:32:50.809Z,99949.27
2018-06-30T18:35:54.626Z,99942.74
2018-06-30T18:38:58.248Z,99964.03
2018-06-30T18:42:03.650Z,99961.50
2018-06-30T18:45:08.024Z,99966.60
2018-06-30T18:48:12.195Z,99955.02
2018-06-30T18:51:15.665Z,99963.51
2018-06-30T18:54:18.908Z,99960.21
2018-06-30T18:57:21.892Z,99964.30
2018-06-30T19:00:26.334Z,99965.22
2018-06-30T19:03:29.470Z,99968.36
2018-06-30T19:06:33.141Z,99966.44
2018-06-30T19:09:36.797Z,99969.50
2018-06-30T19:12:40.270Z,99974.30
2018-06-30T19:15:43.477Z,99981.55
2018-06-30T19:18:46.875Z,99983.89
2018-06-30T19:21:50.385Z,99983.05
2018-06-30T19:24:53.731Z,99986.63
2018-06-30T19:27:57.045Z,99993.98
2018-06-30T19:31:00.608Z,99998.50
2018-06-30T19:34:04.353Z,99996.61
2018-06-30T19:37:08.347Z,100001.42
2018-06-30T19:40:12.941Z,100006.29
2018-06-30T19:43:16.481Z,100007.65
2018-06-30T19:46:19.776Z,100014.14
2018-06-30T19:49:22.753Z,100017.95
2018-06-30T19:52:26.243Z,100022.03
2018-06-30T19:55:29.947Z,100023.53
2018-06-30T19:58:33.813Z,100023.83
2018-06-30T20:01:36.954Z,100029.45
2018-06-30T20:04:40.382Z,100030.26
2018-06-30T20:07:49.487Z,100030.09
2018-06-30T20:10:52.437Z,100040.89
2018-06-30T20:13:55.606Z,100037.54
2018-06-30T20:16:58.668Z,100052.62
2018-06-30T20:20:01.847Z,100051.63
2018-06-30T20:23:05.288Z,100057.08
2018-06-30T20:26:09.120Z,99996.31
2018-06-30T20:29:13.825Z,100052.22
2018-06-30T20:32:17.434Z,100050.20
2018-06-30T20:35:20.977Z,100053.05
2018-06-30T20:38:26.873Z,100059.87
2018-06-30T20:41:30.573Z,100088.31
2018-06-30T20:44:34.068Z,100069.64
2018-06-30T20:47:37.465Z,100068.53
2018-06-30T20:50:42.042Z,100070.81
2018-06-30T20:53:46.469Z,100071.31
2018-06-30T20:56:50.533Z,100071.78
2018-06-30T20:59:59.848Z,100079.59
2018-06-30T21:03:03.669Z,100075.41
2018-06-30T21:06:07.850Z,100083.46
2018-06-30T21:09:12.674Z,100085.27
2018-06-30T21:12:16.768Z,100088.22
2018-06-30T21:15:20.791Z,100089.68
2018-06-30T21:18:25.911Z,100089.86
2018-06-30T21:21:37.491Z,100096.91
2018-06-30T21:24:41.280Z,100096.89
2018-06-30T21:27:45.082Z,100104.27
2018-06-30T21:30:48.412Z,100098.89
2018-06-30T21:33:52.163Z,100103.25
2018-06-30T21:37:59.363Z,100096.08
2018-06-30T21:41:02.676Z,100098.98
2018-06-30T21:44:06.685Z,100106.64
2018-06-30T21:47:11.599Z,100105.33
2018-06-30T21:50:15.423Z,100108.89
2018-06-30T21:53:19.937Z,100111.81
2018-06-30T21:56:25.012Z,100112.30
2018-06-30T21:59:35.226Z,100118.67
2018-06-30T22:02:38.785Z,100119.25
2018-06-30T22:05:43.965Z,100118.87
2018-06-30T22:08:48.054Z,100123.35
2018-06-30T22:11:54.282Z,100128.39
2018-06-30T22:15:01.349Z,100119.45
2018-06-30T22:18:07.378Z,100128.70
2018-06-30T22:21:13.304Z,100140.02
2018-06-30T22:24:17.854Z,100135.64
2018-06-30T22:27:23.356Z,100133.13
2018-06-30T22:30:32.490Z,100140.25
2018-06-30T22:33:39.458Z,100136.09
2018-06-30T22:36:44.773Z,100142.63
2018-06-30T22:40:05.116Z,100149.27
2018-06-30T22:43:08.469Z,100144.33
2018-06-30T22:46:11.517Z,100153.19
2018-06-30T22:49:15.194Z,100149.23
2018-06-30T22:52:18.822Z,100156.98
2018-06-30T22:55:22.933Z,100149.91
2018-06-30T22:58:25.916Z,100154.44
2018-06-30T23:01:28.848Z,100154.20
2018-06-30T23:04:31.789Z,100148.73
2018-06-30T23:07:35.783Z,100149.22
2018-06-30T23:10:38.757Z,100159.15
2018-06-30T23:13:41.971Z,100151.84
2018-06-30T23:16:45.500Z,100160.32
2018-06-30T23:19:48.460Z,100155.97
2018-06-30T23:22:56.785Z,100158.83
2018-06-30T23:25:59.702Z,100149.77
2018-06-30T23:29:02.682Z,100156.68
2018-06-30T23:32:06.476Z,100155.86
2018-06-30T23:35:09.402Z,100154.69
2018-06-30T23:38:12.402Z,100156.03
2018-06-30T23:41:15.543Z,100157.66
2018-06-30T23:44:18.473Z,100161.12
2018-06-30T23:47:21.397Z,100158.82
2018-06-30T23:50:24.607Z,100157.83
2018-06-30T23:53:27.747Z,100166.89
2018-06-30T23:56:30.715Z,100166.23
2018-06-30T23:59:33.920Z,100167.30
